Time,TemperatureF,DewpointF,PressureIn,WindDirection,WindDirectionDegrees,WindSpeedMPH,WindSpeedGustMPH,Humidity,HourlyPrecipIn,Conditions,Clouds,dailyrainin,SoftwareType,DateUTC
2013-04-02 00:07:00,27.6,22.0,30.15,SW,217,0.0,0.0,80,0.00,,,0.00,weatherlink.com 1.10,2013-04-02 04:07:00,
2013-04-02 00:22:00,27.6,22.0,30.15,SW,217,0.0,0.0,80,0.00,,,0.00,weatherlink.com 1.10,2013-04-02 04:22:00,
2013-04-02 00:37:00,27.4,21.0,30.15,SW,217,0.0,1.0,78,0.00,,,0.00,weatherlink.com 1.10,2013-04-02 04:37:00,
2013-04-02 00:52:00,27.6,21.0,30.15,SW,217,0.0,0.0,76,0.00,,,0.00,weatherlink.com 1.10,2013-04-02 04:52:00,
2013-04-02 01:07:00,27.0,21.0,30.15,SW,217,0.0,0.0,78,0.00,,,0.00,weatherlink.com 1.10,2013-04-02 05:07:00,
2013-04-02 01:22:00,26.6,22.0,30.15,SW,217,0.0,0.0,81,0.00,,,0.00,weatherlink.com 1.10,2013-04-02 05:22:00,
2013-04-02 01:37:00,26.4,22.0,30.15,SW,217,0.0,0.0,84,0.00,,,0.00,weatherlink.com 1.10,2013-04-02 05:37:00,
2013-04-02 01:52:00,26.0,22.0,30.16,SW,217,0.0,0.0,83,0.00,,,0.00,weatherlink.com 1.10,2013-04-02 05:52:00,
2013-04-02 02:07:00,25.7,21.0,30.16,SW,217,0.0,0.0,83,0.00,,,0.00,weatherlink.com 1.10,2013-04-02 06:07:00,
2013-04-02 02:23:00,26.1,22.0,30.16,SSW,213,1.0,2.0,83,0.00,,,0.00,weatherlink.com 1.10,2013-04-02 06:23:00,
2013-04-02 02:38:00,26.3,22.0,30.16,SSW,195,3.0,3.0,82,0.00,,,0.00,weatherlink.com 1.10,2013-04-02 06:38:00,
2013-04-02 02:53:00,26.6,22.0,30.16,SSW,197,2.0,3.0,81,0.00,,,0.00,weatherlink.com 1.10,2013-04-02 06:53:00,
2013-04-02 03:08:00,26.7,22.0,30.16,SSW,204,1.0,3.0,81,0.00,,,0.00,weatherlink.com 1.10,2013-04-02 07:08:00,
2013-04-02 03:23:00,27.5,22.0,30.16,SSW,196,2.0,3.0,79,0.00,,,0.00,weatherlink.com 1.10,2013-04-02 07:23:00,
2013-04-02 03:38:00,27.7,22.0,30.16,SSW,194,0.0,3.0,78,0.00,,,0.00,weatherlink.com 1.10,2013-04-02 07:38:00,
2013-04-02 03:53:00,27.5,22.0,30.16,SSE,158,0.0,0.0,78,0.00,,,0.00,weatherlink.com 1.10,2013-04-02 07:53:00,
2013-04-02 04:08:00,27.1,21.0,30.16,SSW,198,0.0,0.0,79,0.00,,,0.00,weatherlink.com 1.10,2013-04-02 08:08:00,
2013-04-02 04:23:00,26.7,21.0,30.17,SW,215,0.0,1.0,80,0.00,,,0.00,weatherlink.com 1.10,2013-04-02 08:23:00,
2013-04-02 04:38:00,26.4,21.0,30.17,SSW,212,0.0,0.0,80,0.00,,,0.00,weatherlink.com 1.10,2013-04-02 08:38:00,
2013-04-02 04:53:00,26.2,21.0,30.17,SSW,211,0.0,1.0,82,0.00,,,0.00,weatherlink.com 1.10,2013-04-02 08:53:00,
2013-04-02 05:08:00,26.1,21.0,30.18,SSW,207,0.0,1.0,82,0.00,,,0.00,weatherlink.com 1.10,2013-04-02 09:08:00,
2013-04-02 05:23:00,25.9,21.0,30.18,SSW,207,0.0,0.0,81,0.00,,,0.00,weatherlink.com 1.10,2013-04-02 09:23:00,
2013-04-02 05:38:00,25.7,21.0,30.19,SSW,198,0.0,2.0,82,0.00,,,0.00,weatherlink.com 1.10,2013-04-02 09:38:00,
2013-04-02 05:53:00,25.0,20.0,30.20,SSW,194,2.0,3.0,81,0.00,,,0.00,weatherlink.com 1.10,2013-04-02 09:53:00,
2013-04-02 06:08:00,24.6,20.0,30.20,South,190,3.0,4.0,84,0.00,,,0.00,weatherlink.com 1.10,2013-04-02 10:08:00,
2013-04-02 06:23:00,24.7,21.0,30.20,SSW,198,0.0,3.0,84,0.00,,,0.00,weatherlink.com 1.10,2013-04-02 10:23:00,
2013-04-02 06:38:00,24.9,20.0,30.21,SSW,196,1.0,3.0,83,0.00,,,0.00,weatherlink.com 1.10,2013-04-02 10:38:00,
2013-04-02 06:53:00,25.0,20.0,30.21,South,191,0.0,2.0,82,0.00,,,0.00,weatherlink.com 1.10,2013-04-02 10:53:00,
2013-04-02 07:08:00,24.8,20.0,30.22,South,191,0.0,0.0,82,0.00,,,0.00,weatherlink.com 1.10,2013-04-02 11:08:00,
2013-04-02 07:23:00,24.5,20.0,30.22,SSW,192,0.0,0.0,82,0.00,,,0.00,weatherlink.com 1.10,2013-04-02 11:23:00,
2013-04-02 07:38:00,24.3,20.0,30.23,SSW,192,0.0,1.0,83,0.00,,,0.00,weatherlink.com 1.10,2013-04-02 11:38:00,
2013-04-02 07:53:00,24.2,20.0,30.23,SSW,192,0.0,0.0,83,0.00,,,0.00,weatherlink.com 1.10,2013-04-02 11:53:00,
2013-04-02 08:08:00,24.4,21.0,30.24,SSW,192,1.0,2.0,86,0.00,,,0.00,weatherlink.com 1.10,2013-04-02 12:08:00,
2013-04-02 08:23:00,25.7,22.0,30.24,South,178,2.0,3.0,84,0.00,,,0.00,weatherlink.com 1.10,2013-04-02 12:23:00,
2013-04-02 08:38:00,26.5,22.0,30.25,South,191,0.0,5.0,82,0.00,,,0.00,weatherlink.com 1.10,2013-04-02 12:38:00,
2013-04-02 08:53:00,27.3,22.0,30.26,SSW,205,0.0,3.0,81,0.00,,,0.00,weatherlink.com 1.10,2013-04-02 12:53:00,
2013-04-02 09:08:00,28.4,23.0,30.26,West,263,1.0,3.0,79,0.00,,,0.00,weatherlink.com 1.10,2013-04-02 13:08:00,
2013-04-02 09:23:00,29.8,23.0,30.26,SW,236,1.0,5.0,76,0.00,,,0.00,weatherlink.com 1.10,2013-04-02 13:23:00,
2013-04-02 09:38:00,31.5,24.0,30.27,SW,226,0.0,3.0,73,0.00,,,0.00,weatherlink.com 1.10,2013-04-02 13:38:00,
2013-04-02 09:53:00,32.8,24.0,30.27,SW,219,2.0,4.0,71,0.00,,,0.00,weatherlink.com 1.10,2013-04-02 13:53:00,
2013-04-02 10:08:00,33.7,25.0,30.27,SW,218,0.0,3.0,69,0.00,,,0.00,weatherlink.com 1.10,2013-04-02 14:08:00,
2013-04-02 10:24:00,34.5,24.0,30.27,WSW,237,0.0,4.0,66,0.00,,,0.00,weatherlink.com 1.10,2013-04-02 14:24:00,
2013-04-02 10:39:00,35.4,22.0,30.28,SSW,192,3.0,4.0,59,0.00,,,0.00,weatherlink.com 1.10,2013-04-02 14:39:00,
2013-04-02 10:54:00,36.6,23.0,30.28,SW,215,1.0,5.0,58,0.00,,,0.00,weatherlink.com 1.10,2013-04-02 14:54:00,
2013-04-02 11:09:00,36.1,20.0,30.28,SSW,204,2.0,7.0,52,0.00,,,0.00,weatherlink.com 1.10,2013-04-02 15:09:00,
2013-04-02 11:24:00,35.9,21.0,30.28,WSW,248,0.0,9.0,56,0.00,,,0.00,weatherlink.com 1.10,2013-04-02 15:24:00,
2013-04-02 11:39:00,36.8,19.0,30.29,West,269,0.0,8.0,49,0.00,,,0.00,weatherlink.com 1.10,2013-04-02 15:39:00,
2013-04-02 11:54:00,37.1,20.0,30.28,WSW,241,3.0,8.0,50,0.00,,,0.00,weatherlink.com 1.10,2013-04-02 15:54:00,
2013-04-02 12:09:00,37.8,20.0,30.28,SW,236,1.0,6.0,48,0.00,,,0.00,weatherlink.com 1.10,2013-04-02 16:09:00,
2013-04-02 12:24:00,38.9,22.0,30.28,South,171,8.0,10.0,50,0.00,,,0.00,weatherlink.com 1.10,2013-04-02 16:24:00,
2013-04-02 12:39:00,38.1,21.0,30.28,SSW,211,0.0,9.0,51,0.00,,,0.00,weatherlink.com 1.10,2013-04-02 16:39:00,
2013-04-02 12:54:00,38.0,21.0,30.28,South,187,8.0,14.0,51,0.00,,,0.00,weatherlink.com 1.10,2013-04-02 16:54:00,
2013-04-02 13:09:00,39.6,22.0,30.27,West,268,2.0,14.0,50,0.00,,,0.00,weatherlink.com 1.10,2013-04-02 17:09:00,
2013-04-02 13:24:00,38.9,20.0,30.26,SSW,194,5.0,8.0,46,0.00,,,0.00,weatherlink.com 1.10,2013-04-02 17:24:00,
2013-04-02 13:39:00,39.2,19.0,30.26,SSE,150,1.0,11.0,45,0.00,,,0.00,weatherlink.com 1.10,2013-04-02 17:39:00,
2013-04-02 13:54:00,40.4,20.0,30.25,South,188,9.0,9.0,45,0.00,,,0.00,weatherlink.com 1.10,2013-04-02 17:54:00,
2013-04-02 14:09:00,40.1,23.0,30.25,South,186,12.0,14.0,50,0.00,,,0.00,weatherlink.com 1.10,2013-04-02 18:09:00,
2013-04-02 14:24:00,41.2,24.0,30.25,SSW,200,5.0,12.0,50,0.00,,,0.00,weatherlink.com 1.10,2013-04-02 18:24:00,
2013-04-02 14:39:00,41.1,19.0,30.24,SSW,204,0.0,16.0,42,0.00,,,0.00,weatherlink.com 1.10,2013-04-02 18:39:00,
2013-04-02 14:54:00,41.9,23.0,30.24,West,264,1.0,13.0,47,0.00,,,0.00,weatherlink.com 1.10,2013-04-02 18:54:00,
2013-04-02 15:09:00,42.2,20.0,30.23,South,190,4.0,12.0,41,0.00,,,0.00,weatherlink.com 1.10,2013-04-02 19:09:00,
2013-04-02 15:24:00,43.1,21.0,30.23,SSW,202,6.0,14.0,42,0.00,,,0.00,weatherlink.com 1.10,2013-04-02 19:24:00,
2013-04-02 15:39:00,43.8,21.0,30.23,SSW,211,7.0,11.0,41,0.00,,,0.00,weatherlink.com 1.10,2013-04-02 19:39:00,
2013-04-02 16:09:00,43.9,20.0,30.22,South,190,2.0,14.0,38,0.00,,,0.00,weatherlink.com 1.10,2013-04-02 20:09:00,
2013-04-02 16:24:00,45.0,20.0,30.21,SSW,206,2.0,10.0,37,0.00,,,0.00,weatherlink.com 1.10,2013-04-02 20:24:00,
2013-04-02 16:39:00,44.6,20.0,30.21,SSW,196,2.0,12.0,37,0.00,,,0.00,weatherlink.com 1.10,2013-04-02 20:39:00,
2013-04-02 16:54:00,44.4,19.0,30.21,SSW,202,2.0,6.0,37,0.00,,,0.00,weatherlink.com 1.10,2013-04-02 20:54:00,
2013-04-02 17:09:00,44.9,20.0,30.21,WSW,248,0.0,12.0,37,0.00,,,0.00,weatherlink.com 1.10,2013-04-02 21:09:00,
2013-04-02 17:24:00,44.5,21.0,30.21,SSW,203,3.0,12.0,39,0.00,,,0.00,weatherlink.com 1.10,2013-04-02 21:24:00,
2013-04-02 17:39:00,44.3,19.0,30.21,SSW,198,1.0,11.0,36,0.00,,,0.00,weatherlink.com 1.10,2013-04-02 21:39:00,
2013-04-02 17:54:00,44.6,19.0,30.21,South,190,10.0,14.0,36,0.00,,,0.00,weatherlink.com 1.10,2013-04-02 21:54:00,
2013-04-02 18:09:00,44.9,20.0,30.21,SSW,204,7.0,15.0,37,0.00,,,0.00,weatherlink.com 1.10,2013-04-02 22:09:00,
2013-04-02 18:24:00,43.7,19.0,30.21,SSW,206,4.0,12.0,37,0.00,,,0.00,weatherlink.com 1.10,2013-04-02 22:24:00,
2013-04-02 18:39:00,44.2,17.0,30.21,SSW,197,5.0,7.0,34,0.00,,,0.00,weatherlink.com 1.10,2013-04-02 22:39:00,
2013-04-02 18:54:00,44.1,19.0,30.22,SSW,209,1.0,7.0,36,0.00,,,0.00,weatherlink.com 1.10,2013-04-02 22:54:00,
2013-04-02 19:09:00,43.0,19.0,30.22,SSW,201,3.0,7.0,38,0.00,,,0.00,weatherlink.com 1.10,2013-04-02 23:09:00,
2013-04-02 19:24:00,43.1,19.0,30.22,SSW,202,4.0,7.0,38,0.00,,,0.00,weatherlink.com 1.10,2013-04-02 23:24:00,
2013-04-02 19:39:00,42.2,17.0,30.22,SSW,200,4.0,7.0,37,0.00,,,0.00,weatherlink.com 1.10,2013-04-02 23:39:00,
2013-04-02 19:54:00,41.1,19.0,30.22,SSW,209,0.0,6.0,41,0.00,,,0.00,weatherlink.com 1.10,2013-04-02 23:54:00,
2013-04-02 20:09:00,39.8,20.0,30.22,SSW,196,0.0,3.0,45,0.00,,,0.00,weatherlink.com 1.10,2013-04-03 00:09:00,
2013-04-02 20:25:00,38.7,20.0,30.23,SSW,213,0.0,1.0,47,0.00,,,0.00,weatherlink.com 1.10,2013-04-03 00:25:00,
2013-04-02 20:39:00,37.5,20.0,30.23,SSW,213,0.0,1.0,50,0.00,,,0.00,weatherlink.com 1.10,2013-04-03 00:39:00,
2013-04-02 20:55:00,36.5,20.0,30.24,SSW,213,0.0,0.0,51,0.00,,,0.00,weatherlink.com 1.10,2013-04-03 00:55:00,
2013-04-02 21:09:00,35.8,20.0,30.24,SSW,213,0.0,1.0,52,0.00,,,0.00,weatherlink.com 1.10,2013-04-03 01:09:00,
2013-04-02 21:25:00,35.0,20.0,30.25,SW,221,0.0,0.0,55,0.00,,,0.00,weatherlink.com 1.10,2013-04-03 01:25:00,
2013-04-02 21:39:00,34.0,19.0,30.26,WNW,297,2.0,4.0,55,0.00,,,0.00,weatherlink.com 1.10,2013-04-03 01:39:00,
2013-04-02 22:09:00,34.1,18.0,30.27,NW,314,1.0,3.0,53,0.00,,,0.00,weatherlink.com 1.10,2013-04-03 02:09:00,
2013-04-02 22:24:00,33.9,18.0,30.27,NW,311,1.0,3.0,52,0.00,,,0.00,weatherlink.com 1.10,2013-04-03 02:24:00,
2013-04-02 22:39:00,33.9,17.0,30.28,NW,315,2.0,3.0,51,0.00,,,0.00,weatherlink.com 1.10,2013-04-03 02:39:00,
2013-04-02 22:54:00,33.5,17.0,30.28,NW,313,1.0,3.0,51,0.00,,,0.00,weatherlink.com 1.10,2013-04-03 02:54:00,
2013-04-02 23:09:00,33.2,17.0,30.28,NW,314,1.0,4.0,52,0.00,,,0.00,weatherlink.com 1.10,2013-04-03 03:09:00,
2013-04-02 23:24:00,32.8,18.0,30.29,NW,315,1.0,2.0,54,0.00,,,0.00,weatherlink.com 1.10,2013-04-03 03:24:00,
2013-04-02 23:39:00,32.5,17.0,30.29,NW,314,1.0,3.0,54,0.00,,,0.00,weatherlink.com 1.10,2013-04-03 03:39:00,
2013-04-02 23:54:00,32.2,18.0,30.29,NW,315,0.0,2.0,55,0.00,,,0.00,weatherlink.com 1.10,2013-04-03 03:54:00,